createdAt,value
2023-04-18T00:04:52.142Z,5.8
2023-04-18T00:09:58.706Z,5.8
2023-04-18T00:15:05.346Z,5.8
2023-04-18T00:20:11.901Z,5.8
2023-04-18T00:25:18.483Z,5.8
2023-04-18T00:30:25.063Z,5.7
2023-04-18T00:35:31.664Z,5.8
2023-04-18T00:45:44.766Z,5.7
2023-04-18T00:50:51.341Z,5.7
2023-04-18T00:55:57.917Z,5.7
2023-04-18T01:01:04.495Z,5.7
2023-04-18T01:06:10.321Z,5.7
2023-04-18T01:16:23.460Z,5.7
2023-04-18T01:21:29.353Z,5.6
2023-04-18T01:26:35.923Z,5.6
2023-04-18T01:31:41.766Z,5.6
2023-04-18T01:36:48.334Z,5.6
2023-04-18T01:41:54.925Z,5.6
2023-04-18T01:47:01.486Z,5.6
2023-04-18T01:52:08.046Z,5.5
2023-04-18T01:57:14.629Z,5.5
2023-04-18T02:02:21.179Z,5.5
2023-04-18T02:07:27.753Z,5.5
2023-04-18T02:12:34.325Z,5.5
2023-04-18T02:17:40.216Z,5.5
2023-04-18T02:22:46.071Z,5.4
2023-04-18T02:27:52.631Z,5.4
2023-04-18T02:32:59.218Z,5.4
2023-04-18T02:38:05.800Z,5.4
2023-04-18T02:43:12.348Z,5.4
2023-04-18T02:48:18.925Z,5.4
2023-04-18T02:53:25.491Z,5.4
2023-04-18T02:58:32.070Z,5.4
2023-04-18T03:03:38.639Z,5.4
2023-04-18T03:08:45.220Z,5.4
2023-04-18T03:13:51.096Z,5.4
2023-04-18T03:18:56.936Z,5.3
2023-04-18T03:24:03.516Z,5.3
2023-04-18T03:29:10.078Z,5.3
2023-04-18T03:34:16.650Z,5.3
2023-04-18T03:39:23.232Z,5.3
2023-04-18T03:44:29.805Z,5.3
2023-04-18T03:49:36.360Z,5.3
2023-04-18T03:54:42.951Z,5.2
2023-04-18T03:59:49.531Z,5.2
2023-04-18T04:04:56.086Z,5.3
2023-04-18T04:10:02.665Z,5.3
2023-04-18T04:15:09.231Z,5.3
2023-04-18T04:20:15.816Z,5.2
2023-04-18T04:25:22.373Z,5.3
2023-04-18T04:30:28.215Z,5.3
2023-04-18T04:35:34.804Z,5.3
2023-04-18T04:40:41.381Z,5.3
2023-04-18T04:45:47.919Z,5.4
2023-04-18T04:50:54.512Z,5.5
2023-04-18T04:56:01.114Z,5.6
2023-04-18T05:01:07.643Z,5.6
2023-04-18T05:06:14.229Z,5.4
2023-04-18T05:11:20.810Z,5.3
2023-04-18T05:16:27.359Z,5.1
2023-04-18T05:26:40.498Z,5.1
2023-04-18T05:31:47.082Z,5
2023-04-18T05:36:53.662Z,5.2
2023-04-18T05:41:59.500Z,5.4
2023-04-18T05:47:06.076Z,5.5
2023-04-18T05:52:12.645Z,5.7
2023-04-18T05:57:19.247Z,5.7
2023-04-18T06:02:25.782Z,5.9
2023-04-18T06:07:32.359Z,6.2
2023-04-18T06:12:38.922Z,6.2
2023-04-18T06:17:45.511Z,6.5
2023-04-18T06:22:52.076Z,7.3
2023-04-18T06:27:58.641Z,7.8
2023-04-18T06:33:05.207Z,8
2023-04-18T06:38:11.780Z,7.9
2023-04-18T06:43:18.344Z,8.8
2023-04-18T06:48:24.191Z,8.8
2023-04-18T06:58:37.325Z,10
2023-04-18T07:08:50.484Z,10
2023-04-18T07:29:16.101Z,11.4
2023-04-18T07:34:21.973Z,11.7
2023-04-18T07:44:34.358Z,12.4
2023-04-18T07:54:46.805Z,11.2
2023-04-18T07:59:52.772Z,10.5
2023-04-18T08:10:05.812Z,9.8
2023-04-18T08:20:18.888Z,9.7
2023-04-18T08:25:25.445Z,10.1
2023-04-18T08:35:38.576Z,12
2023-04-18T08:40:45.141Z,12.6
2023-04-18T08:45:51.774Z,13.6
2023-04-18T08:56:04.838Z,14.2
2023-04-18T09:01:11.457Z,13.1
2023-04-18T09:06:17.288Z,11.7
2023-04-18T09:16:29.692Z,11.4
2023-04-18T09:31:49.388Z,14.4
2023-04-18T09:36:55.972Z,14.2
2023-04-18T09:42:02.526Z,13.1
2023-04-18T09:47:09.103Z,12.1
2023-04-18T09:52:15.676Z,12.4
2023-04-18T10:02:28.800Z,11.1
2023-04-18T10:07:35.376Z,11.1
2023-04-18T10:17:48.580Z,10.8
2023-04-18T10:22:55.076Z,10.9
2023-04-18T10:28:01.663Z,10.9
2023-04-18T10:33:07.471Z,10.9
2023-04-18T10:38:14.085Z,11
2023-04-18T10:43:20.711Z,10.8
2023-04-18T10:48:27.175Z,11.1
2023-04-18T10:53:33.769Z,11.4
2023-04-18T10:58:40.308Z,11.3
2023-04-18T11:03:46.965Z,11.6
2023-04-18T11:14:00.132Z,11.6
2023-04-18T11:19:06.582Z,11.8
2023-04-18T11:24:13.147Z,11.7
2023-04-18T11:34:26.271Z,12.7
2023-04-18T11:39:32.108Z,13.1
2023-04-18T11:44:38.667Z,12.8
2023-04-18T11:49:45.250Z,13.1
2023-04-18T11:59:58.382Z,13.2
2023-04-18T12:05:04.945Z,13
2023-04-18T12:10:11.498Z,13.3
2023-04-18T12:20:24.673Z,13.6
2023-04-18T12:25:31.221Z,13.2
2023-04-18T12:35:44.370Z,14.1
2023-04-18T12:51:04.117Z,14.2
2023-04-18T12:56:09.928Z,13.6
2023-04-18T13:06:23.060Z,13.7
2023-04-18T13:11:29.597Z,13.4
2023-04-18T13:21:42.720Z,13.8
2023-04-18T13:26:49.294Z,13.8
2023-04-18T13:31:55.867Z,13.2
2023-04-18T13:47:15.575Z,14.8
2023-04-18T13:52:22.148Z,15.8
2023-04-18T13:57:28.714Z,14.3
2023-04-18T14:02:34.540Z,13.3
2023-04-18T14:07:41.115Z,13
2023-04-18T14:23:00.805Z,13.1
2023-04-18T14:28:07.382Z,12.9
2023-04-18T14:33:13.977Z,12.7
2023-04-18T14:38:20.729Z,12.4
2023-04-18T14:43:27.165Z,12.2
2023-04-18T14:48:33.826Z,12
2023-04-18T14:53:40.326Z,11.9
2023-04-18T14:58:46.798Z,12
2023-04-18T15:03:53.330Z,12.2
2023-04-18T15:08:59.903Z,12.3
2023-04-18T15:14:05.858Z,12.2
2023-04-18T15:24:18.888Z,12.2
2023-04-18T15:29:25.461Z,12.1
2023-04-18T15:34:32.015Z,12
2023-04-18T15:39:38.639Z,12
2023-04-18T15:44:45.172Z,12.1
2023-04-18T15:54:58.299Z,12
2023-04-18T16:00:04.869Z,12.1
2023-04-18T16:05:11.442Z,12
2023-04-18T16:10:18.003Z,11.9
2023-04-18T16:15:24.574Z,11.8
2023-04-18T16:20:31.143Z,11.8
2023-04-18T16:25:37.716Z,11.8
2023-04-18T16:30:43.572Z,11.8
2023-04-18T16:35:50.108Z,11.9
2023-04-18T16:40:56.685Z,11.8
2023-04-18T16:46:03.301Z,11.7
2023-04-18T16:51:09.863Z,11.7
2023-04-18T16:56:16.432Z,11.7
2023-04-18T17:01:23.086Z,11.7
2023-04-18T17:06:29.606Z,11.7
2023-04-18T17:11:36.123Z,11.6
2023-04-18T17:16:42.719Z,11.6
2023-04-18T17:21:49.253Z,11.5
2023-04-18T17:26:55.149Z,11.5
2023-04-18T17:32:00.994Z,11.4
2023-04-18T17:37:07.537Z,11.4
2023-04-18T17:42:14.110Z,11.3
2023-04-18T17:47:20.791Z,11.3
2023-04-18T17:52:27.255Z,11.3
2023-04-18T17:57:33.811Z,11.2
2023-04-18T18:07:46.955Z,11
2023-04-18T18:12:53.536Z,10.9
2023-04-18T18:18:00.083Z,10.9
2023-04-18T18:23:06.684Z,10.8
2023-04-18T18:28:13.251Z,10.7
2023-04-18T18:38:26.388Z,10.6
2023-04-18T18:43:32.940Z,10.5
2023-04-18T18:48:39.621Z,10.4
2023-04-18T18:53:45.380Z,10.4
2023-04-18T18:58:51.221Z,10.3
2023-04-18T19:14:10.950Z,10
2023-04-18T19:19:17.515Z,9.9
2023-04-18T19:24:24.092Z,9.8
2023-04-18T19:29:30.639Z,9.6
2023-04-18T19:34:37.218Z,9.5
2023-04-18T19:39:43.884Z,9.4
2023-04-18T19:44:50.407Z,9.4
2023-04-18T19:49:56.919Z,9.3
2023-04-18T19:55:03.487Z,9.2
2023-04-18T20:00:10.062Z,9.1
2023-04-18T20:05:15.986Z,9.1
2023-04-18T20:15:29.059Z,8.9
2023-04-18T20:25:42.188Z,8.8
2023-04-18T20:30:48.752Z,8.8
2023-04-18T20:35:55.340Z,8.7
2023-04-18T20:41:01.922Z,8.6
2023-04-18T20:46:08.501Z,8.5
2023-04-18T20:51:15.168Z,8.5
2023-04-18T20:56:21.638Z,8.4
2023-04-18T21:01:28.159Z,8.3
2023-04-18T21:06:34.779Z,8.2
2023-04-18T21:11:41.320Z,8.2
2023-04-18T21:32:06.894Z,7.8
2023-04-18T21:47:26.601Z,7.7
2023-04-18T21:57:39.768Z,7.6
2023-04-18T22:02:46.282Z,7.5
2023-04-18T22:07:52.873Z,7.3
2023-04-18T22:12:59.472Z,7.1
2023-04-18T22:18:06.067Z,6.8
2023-04-18T22:28:18.434Z,6.5
2023-04-18T22:33:25.005Z,6.4
2023-04-18T22:43:38.210Z,6.3
2023-04-18T22:48:44.706Z,6.3
2023-04-18T22:53:51.280Z,6.2
2023-04-18T22:58:57.853Z,6.1
2023-04-18T23:04:04.415Z,6
2023-04-18T23:09:10.995Z,5.9
2023-04-18T23:14:17.604Z,5.7
2023-04-18T23:19:24.156Z,5.6
2023-04-18T23:24:30.784Z,5.4
2023-04-18T23:29:36.570Z,5.3
2023-04-18T23:34:43.122Z,5.1
2023-04-18T23:44:56.257Z,4.9
2023-04-18T23:50:02.833Z,4.7
2023-04-18T23:55:09.410Z,4.6
